createdAt,value
2022-12-28T00:05:42.316Z,95.30
2022-12-28T00:15:43.690Z,95.33
2022-12-28T00:25:45.055Z,95.27
2022-12-28T00:35:53.585Z,97.61
2022-12-28T00:45:55.057Z,99.66
2022-12-28T00:56:04.586Z,100.00
2022-12-28T01:06:07.243Z,100.00
2022-12-28T01:16:15.860Z,100.00
2022-12-28T01:26:17.330Z,100.00
2022-12-28T01:36:24.526Z,100.00
2022-12-28T01:46:39.904Z,100.00
2022-12-28T01:56:42.985Z,100.00
2022-12-28T02:06:44.870Z,100.00
2022-12-28T02:16:46.843Z,100.00
2022-12-28T02:26:56.695Z,100.00
2022-12-28T02:37:10.156Z,100.00
2022-12-28T02:47:34.075Z,100.00
2022-12-28T02:57:50.224Z,100.00
2022-12-28T03:08:22.355Z,100.00
2022-12-28T03:18:44.285Z,100.00
2022-12-28T03:29:06.123Z,100.00
2022-12-28T03:39:22.114Z,100.00
2022-12-28T03:49:24.770Z,100.00
2022-12-28T03:59:26.145Z,100.00
2022-12-28T04:09:28.367Z,100.00
2022-12-28T04:19:29.733Z,100.00
2022-12-28T04:29:31.105Z,100.00
2022-12-28T04:39:55.145Z,100.00
2022-12-28T04:49:53.999Z,100.00
2022-12-28T04:59:55.350Z,100.00
2022-12-28T05:09:56.831Z,100.00
2022-12-28T05:19:58.191Z,100.00
2022-12-28T05:29:59.535Z,100.00
2022-12-28T05:40:01.636Z,100.00
2022-12-28T05:50:03.098Z,100.00
2022-12-28T06:00:05.148Z,100.00
2022-12-28T06:10:07.173Z,100.00
2022-12-28T06:20:09.133Z,100.00
2022-12-28T06:30:11.359Z,100.00
2022-12-28T06:40:14.151Z,100.00
2022-12-28T06:50:15.584Z,100.00
2022-12-28T07:00:17.622Z,100.00
2022-12-28T07:10:18.989Z,100.00
2022-12-28T07:20:20.594Z,100.00
2022-12-28T07:30:22.054Z,100.00
2022-12-28T07:40:23.460Z,100.00
2022-12-28T07:50:24.866Z,100.00
2022-12-28T08:00:26.323Z,100.00
2022-12-28T08:10:27.736Z,100.00
2022-12-28T08:20:29.113Z,100.00
2022-12-28T08:30:30.528Z,100.00
2022-12-28T08:40:31.969Z,100.00
2022-12-28T08:50:33.357Z,100.00
2022-12-28T09:00:34.712Z,100.00
2022-12-28T09:10:36.065Z,100.00
2022-12-28T09:20:38.473Z,100.00
2022-12-28T09:30:42.205Z,100.00
2022-12-28T09:40:44.405Z,100.00
2022-12-28T09:50:47.591Z,100.00
2022-12-28T10:00:52.715Z,100.00
2022-12-28T10:10:58.827Z,100.00
2022-12-28T10:21:00.298Z,100.00
2022-12-28T10:31:09.907Z,100.00
2022-12-28T10:41:15.725Z,100.00
2022-12-28T10:51:22.289Z,100.00
2022-12-28T11:01:27.735Z,100.00
2022-12-28T11:11:29.313Z,100.00
2022-12-28T11:21:33.281Z,100.00
2022-12-28T11:31:40.096Z,100.00
2022-12-28T11:41:51.232Z,100.00
2022-12-28T11:52:17.051Z,100.00
2022-12-28T12:02:18.371Z,100.00
2022-12-28T12:12:19.659Z,100.00
2022-12-28T12:22:31.905Z,100.00
2022-12-28T12:33:05.843Z,100.00
2022-12-28T12:43:31.833Z,100.00
2022-12-28T12:54:02.508Z,100.00
2022-12-28T13:04:13.393Z,100.00
2022-12-28T13:14:20.844Z,100.00
2022-12-28T13:24:45.683Z,100.00
2022-12-28T13:34:49.890Z,99.72
2022-12-28T13:44:59.801Z,100.00
2022-12-28T13:55:05.875Z,98.86
2022-12-28T14:05:08.795Z,99.23
2022-12-28T14:15:11.684Z,98.49
2022-12-28T14:25:15.578Z,95.67
2022-12-28T14:35:20.848Z,96.48
2022-12-28T14:56:13.787Z,96.42
2022-12-28T15:06:15.326Z,94.78
2022-12-28T15:16:22.834Z,93.98
2022-12-28T15:26:24.476Z,93.15
2022-12-28T15:36:26.032Z,94.10
2022-12-28T15:46:27.819Z,95.00
2022-12-28T15:56:32.158Z,92.54
2022-12-28T16:06:37.118Z,91.00
2022-12-28T16:16:42.824Z,89.85
2022-12-28T16:26:44.454Z,89.65
2022-12-28T16:36:47.000Z,88.89
2022-12-28T16:46:49.454Z,88.62
2022-12-28T16:56:52.058Z,88.50
2022-12-28T17:06:53.669Z,89.70
2022-12-28T17:16:55.063Z,92.45
2022-12-28T17:26:59.181Z,93.64
2022-12-28T17:37:03.569Z,96.24
2022-12-28T17:47:05.026Z,97.47
2022-12-28T17:57:06.415Z,99.60
2022-12-28T18:07:08.364Z,100.00
2022-12-28T18:17:09.782Z,100.00
2022-12-28T18:27:11.513Z,100.00
2022-12-28T18:37:12.939Z,100.00
2022-12-28T18:47:15.168Z,100.00
2022-12-28T18:57:16.559Z,100.00
2022-12-28T19:07:18.483Z,100.00
2022-12-28T19:17:20.010Z,100.00
2022-12-28T19:27:21.513Z,100.00
2022-12-28T19:37:22.861Z,100.00
2022-12-28T19:47:24.298Z,100.00
2022-12-28T19:57:25.674Z,100.00
2022-12-28T20:07:27.054Z,100.00
2022-12-28T20:17:29.604Z,100.00
2022-12-28T20:27:31.023Z,100.00
2022-12-28T20:37:32.454Z,100.00
2022-12-28T20:47:33.839Z,100.00
2022-12-28T20:57:35.464Z,100.00
2022-12-28T21:07:36.949Z,100.00
2022-12-28T21:17:38.431Z,100.00
2022-12-28T21:27:39.801Z,100.00
2022-12-28T21:37:41.215Z,100.00
2022-12-28T21:47:42.628Z,100.00
2022-12-28T21:57:44.147Z,100.00
2022-12-28T22:07:46.107Z,100.00
2022-12-28T22:17:47.476Z,100.00
2022-12-28T22:27:48.886Z,100.00
2022-12-28T22:37:50.408Z,100.00
2022-12-28T22:47:55.143Z,100.00
2022-12-28T22:57:56.576Z,100.00
2022-12-28T23:07:57.955Z,100.00
2022-12-28T23:18:19.599Z,100.00
2022-12-28T23:28:20.999Z,100.00
2022-12-28T23:38:22.353Z,100.00
2022-12-28T23:48:23.684Z,100.00
2022-12-28T23:58:25.039Z,100.00
